FDX130 EGLL-EBLG
Flight info
| Callsign | FDX130 |
|---|---|
| Flight time | 0h 44m |
| Altitude | 29000 |
| Route | BPK Q295 BRAIN P44 CLN/N0434F230 L608 SUMUM/N0410F190 L608 SASKI L179 NIK |
| Aircraft | B77L/H-SDE1E2E3FGHIJ2J3J4J5M1RWXY/LB1D1 |
Departure
| Time | 2026-05-07 18:54 |
|---|---|
| Airport | London Heathrow Airport (EGLL) |
Arrival
| Time | 2026-05-07 19:38 |
|---|---|
| Airport | Liège Airport (EBLG) |
| Time | Latitude | Longitude | Altitude | Speed | Heading |
|---|---|---|---|---|---|
| 2026-05-07 18:09 | 51.46106 | -0.47385 | 91 ft | 0 kts | 233° |
| 2026-05-07 18:42 | 51.46114 | -0.47367 | 93 ft | 4 kts | 237° |
| 2026-05-07 18:42 | 51.46126 | -0.47335 | 94 ft | 1 kts | 243° |
| 2026-05-07 18:42 | 51.46126 | -0.47333 | 94 ft | 0 kts | 243° |
| 2026-05-07 18:43 | 51.46127 | -0.47331 | 94 ft | 1 kts | 243° |
| 2026-05-07 18:44 | 51.46132 | -0.47304 | 91 ft | 4 kts | 298° |
| 2026-05-07 18:44 | 51.46111 | -0.47274 | 91 ft | 4 kts | 333° |
| 2026-05-07 18:44 | 51.46091 | -0.47263 | 93 ft | 3 kts | 352° |
| 2026-05-07 18:44 | 51.46089 | -0.47262 | 93 ft | 0 kts | 359° |
| 2026-05-07 18:46 | 51.46092 | -0.47262 | 93 ft | 3 kts | 359° |
| 2026-05-07 18:46 | 51.46139 | -0.47263 | 92 ft | 8 kts | 359° |
| 2026-05-07 18:46 | 51.46196 | -0.47264 | 94 ft | 8 kts | 1° |
| 2026-05-07 18:47 | 51.46254 | -0.47262 | 94 ft | 8 kts | 359° |
| 2026-05-07 18:47 | 51.46306 | -0.47292 | 92 ft | 8 kts | 309° |
| 2026-05-07 18:47 | 51.46309 | -0.47300 | 93 ft | 0 kts | 302° |
| 2026-05-07 18:48 | 51.46309 | -0.47301 | 93 ft | 2 kts | 301° |
| 2026-05-07 18:48 | 51.46326 | -0.47368 | 93 ft | 8 kts | 289° |
| 2026-05-07 18:48 | 51.46337 | -0.47456 | 92 ft | 8 kts | 278° |
| 2026-05-07 18:49 | 51.46339 | -0.47545 | 92 ft | 8 kts | 268° |
| 2026-05-07 18:49 | 51.46330 | -0.47635 | 95 ft | 9 kts | 252° |
| 2026-05-07 18:49 | 51.46301 | -0.47730 | 93 ft | 10 kts | 242° |
| 2026-05-07 18:49 | 51.46268 | -0.47828 | 96 ft | 10 kts | 243° |
| 2026-05-07 18:50 | 51.46252 | -0.47941 | 96 ft | 10 kts | 266° |
| 2026-05-07 18:50 | 51.46250 | -0.48058 | 93 ft | 11 kts | 269° |
| 2026-05-07 18:50 | 51.46250 | -0.48187 | 90 ft | 13 kts | 270° |
| 2026-05-07 18:50 | 51.46249 | -0.48334 | 89 ft | 13 kts | 269° |
| 2026-05-07 18:51 | 51.46249 | -0.48457 | 90 ft | 11 kts | 270° |
| 2026-05-07 18:51 | 51.46249 | -0.48517 | 90 ft | 5 kts | 270° |
| 2026-05-07 18:51 | 51.46252 | -0.48572 | 92 ft | 5 kts | 280° |
| 2026-05-07 18:51 | 51.46265 | -0.48628 | 95 ft | 6 kts | 295° |
| 2026-05-07 18:52 | 51.46289 | -0.48684 | 94 ft | 6 kts | 316° |
| 2026-05-07 18:52 | 51.46352 | -0.48735 | 95 ft | 14 kts | 343° |
| 2026-05-07 18:52 | 51.46437 | -0.48737 | 92 ft | 10 kts | 19° |
| 2026-05-07 18:52 | 51.46480 | -0.48656 | 94 ft | 10 kts | 81° |
| 2026-05-07 18:53 | 51.46481 | -0.48616 | 93 ft | 0 kts | 88° |
| 2026-05-07 18:53 | 51.46482 | -0.48448 | 91 ft | 54 kts | 90° |
| 2026-05-07 18:53 | 51.46482 | -0.47271 | 94 ft | 155 kts | 89° |
| 2026-05-07 18:53 | 51.46502 | -0.45172 | 503 ft | 204 kts | 90° |
| 2026-05-07 18:54 | 51.46490 | -0.42834 | 1488 ft | 212 kts | 96° |
| 2026-05-07 18:54 | 51.46636 | -0.40434 | 1954 ft | 229 kts | 65° |
| 2026-05-07 18:54 | 51.47572 | -0.38236 | 2208 ft | 249 kts | 53° |
| 2026-05-07 18:54 | 51.48584 | -0.35952 | 2928 ft | 253 kts | 57° |
| 2026-05-07 18:55 | 51.49531 | -0.33607 | 3773 ft | 255 kts | 58° |
| 2026-05-07 18:55 | 51.50492 | -0.31122 | 4521 ft | 261 kts | 59° |
| 2026-05-07 18:55 | 51.51433 | -0.28626 | 5332 ft | 261 kts | 59° |
| 2026-05-07 18:55 | 51.52376 | -0.26102 | 5917 ft | 267 kts | 59° |
| 2026-05-07 18:56 | 51.53339 | -0.23518 | 6002 ft | 272 kts | 58° |
| 2026-05-07 18:56 | 51.54541 | -0.21283 | 6001 ft | 267 kts | 41° |
| 2026-05-07 18:56 | 51.55854 | -0.19148 | 6025 ft | 272 kts | 51° |
| 2026-05-07 18:56 | 51.57022 | -0.16739 | 6637 ft | 275 kts | 53° |
| 2026-05-07 18:57 | 51.58183 | -0.14284 | 7377 ft | 278 kts | 52° |
| 2026-05-07 18:57 | 51.59380 | -0.11795 | 8054 ft | 283 kts | 52° |
| 2026-05-07 18:57 | 51.60603 | -0.09300 | 8779 ft | 286 kts | 52° |
| 2026-05-07 18:57 | 51.61856 | -0.06777 | 9467 ft | 292 kts | 51° |
| 2026-05-07 18:58 | 51.63143 | -0.04211 | 10136 ft | 297 kts | 51° |
| 2026-05-07 18:58 | 51.64474 | -0.01570 | 10548 ft | 313 kts | 51° |
| 2026-05-07 18:58 | 51.65901 | 0.01252 | 10708 ft | 337 kts | 51° |
| 2026-05-07 18:58 | 51.67434 | 0.04281 | 10894 ft | 361 kts | 51° |
| 2026-05-07 18:59 | 51.69067 | 0.07507 | 11220 ft | 379 kts | 51° |
| 2026-05-07 18:59 | 51.70751 | 0.10832 | 11982 ft | 385 kts | 51° |
| 2026-05-07 18:59 | 51.72457 | 0.14202 | 12842 ft | 391 kts | 51° |
| 2026-05-07 18:59 | 51.74191 | 0.17635 | 13677 ft | 397 kts | 51° |
| 2026-05-07 19:00 | 51.75929 | 0.21127 | 14444 ft | 400 kts | 54° |
| 2026-05-07 19:00 | 51.77354 | 0.25012 | 15109 ft | 406 kts | 67° |
| 2026-05-07 19:00 | 51.78275 | 0.29327 | 15892 ft | 408 kts | 77° |
| 2026-05-07 19:00 | 51.78726 | 0.33870 | 16655 ft | 411 kts | 84° |
| 2026-05-07 19:01 | 51.79056 | 0.38500 | 17378 ft | 417 kts | 84° |
| 2026-05-07 19:01 | 51.79393 | 0.43178 | 18106 ft | 422 kts | 84° |
| 2026-05-07 19:01 | 51.79743 | 0.47857 | 18756 ft | 427 kts | 84° |
| 2026-05-07 19:01 | 51.80112 | 0.52645 | 19403 ft | 431 kts | 83° |
| 2026-05-07 19:02 | 51.80350 | 0.57497 | 19984 ft | 435 kts | 91° |
| 2026-05-07 19:02 | 51.80079 | 0.62370 | 20551 ft | 438 kts | 102° |
| 2026-05-07 19:02 | 51.79279 | 0.67129 | 21209 ft | 440 kts | 112° |
| 2026-05-07 19:02 | 51.77978 | 0.71622 | 21858 ft | 442 kts | 122° |
| 2026-05-07 19:03 | 51.76223 | 0.75689 | 22461 ft | 443 kts | 132° |
| 2026-05-07 19:03 | 51.74115 | 0.79277 | 23059 ft | 446 kts | 138° |
| 2026-05-07 19:03 | 51.71828 | 0.82687 | 23660 ft | 449 kts | 140° |
| 2026-05-07 19:03 | 51.69477 | 0.86050 | 24148 ft | 453 kts | 141° |
| 2026-05-07 19:04 | 51.67102 | 0.89408 | 24659 ft | 457 kts | 141° |
| 2026-05-07 19:04 | 51.64694 | 0.92799 | 25155 ft | 460 kts | 141° |
| 2026-05-07 19:04 | 51.62274 | 0.96200 | 25659 ft | 464 kts | 141° |
| 2026-05-07 19:04 | 51.59828 | 0.99630 | 26104 ft | 468 kts | 141° |
| 2026-05-07 19:05 | 51.57360 | 1.03088 | 26565 ft | 472 kts | 141° |
| 2026-05-07 19:05 | 51.54877 | 1.06565 | 27055 ft | 475 kts | 141° |
| 2026-05-07 19:05 | 51.52366 | 1.10081 | 27559 ft | 478 kts | 141° |
| 2026-05-07 19:05 | 51.49861 | 1.13589 | 28130 ft | 478 kts | 141° |
| 2026-05-07 19:06 | 51.47357 | 1.17098 | 28828 ft | 477 kts | 141° |
| 2026-05-07 19:06 | 51.42338 | 1.24139 | 29065 ft | 479 kts | 141° |
| 2026-05-07 19:06 | 51.39874 | 1.27599 | 29065 ft | 475 kts | 141° |
| 2026-05-07 19:07 | 51.34905 | 1.34572 | 29070 ft | 474 kts | 141° |
| 2026-05-07 19:07 | 51.29939 | 1.41528 | 29065 ft | 473 kts | 140° |
| 2026-05-07 19:08 | 51.27711 | 1.45378 | 29025 ft | 474 kts | 126° |
| 2026-05-07 19:08 | 51.26217 | 1.50030 | 28949 ft | 467 kts | 110° |
| 2026-05-07 19:08 | 51.25416 | 1.54937 | 28850 ft | 455 kts | 103° |
| 2026-05-07 19:08 | 51.24691 | 1.59808 | 28620 ft | 448 kts | 107° |
| 2026-05-07 19:09 | 51.23815 | 1.64586 | 28110 ft | 448 kts | 108° |
| 2026-05-07 19:09 | 51.22897 | 1.69393 | 27816 ft | 458 kts | 108° |
| 2026-05-07 19:09 | 51.21960 | 1.74282 | 27810 ft | 464 kts | 108° |
| 2026-05-07 19:09 | 51.21003 | 1.79240 | 27820 ft | 470 kts | 109° |
| 2026-05-07 19:10 | 51.20026 | 1.84258 | 27832 ft | 476 kts | 109° |
| 2026-05-07 19:10 | 51.19035 | 1.89317 | 27856 ft | 481 kts | 109° |
| 2026-05-07 19:10 | 51.18025 | 1.94454 | 27851 ft | 487 kts | 109° |
| 2026-05-07 19:10 | 51.17005 | 1.99617 | 27857 ft | 492 kts | 109° |
| 2026-05-07 19:11 | 51.15996 | 2.04717 | 27659 ft | 485 kts | 109° |
| 2026-05-07 19:11 | 51.14983 | 2.09815 | 27031 ft | 481 kts | 109° |
| 2026-05-07 19:11 | 51.13977 | 2.14868 | 26430 ft | 476 kts | 109° |
| 2026-05-07 19:11 | 51.12978 | 2.19874 | 25961 ft | 470 kts | 109° |
| 2026-05-07 19:12 | 51.12001 | 2.24761 | 25790 ft | 458 kts | 109° |
| 2026-05-07 19:12 | 51.11042 | 2.29548 | 25432 ft | 450 kts | 109° |
| 2026-05-07 19:12 | 51.10097 | 2.34255 | 25060 ft | 443 kts | 109° |
| 2026-05-07 19:12 | 51.09163 | 2.38889 | 24682 ft | 437 kts | 109° |
| 2026-05-07 19:13 | 51.08236 | 2.43481 | 24310 ft | 432 kts | 109° |
| 2026-05-07 19:13 | 51.07331 | 2.47954 | 23953 ft | 426 kts | 109° |
| 2026-05-07 19:13 | 51.06425 | 2.52418 | 23586 ft | 421 kts | 109° |
| 2026-05-07 19:13 | 51.05530 | 2.56823 | 23162 ft | 417 kts | 109° |
| 2026-05-07 19:14 | 51.04639 | 2.61193 | 22737 ft | 412 kts | 109° |
| 2026-05-07 19:14 | 51.03760 | 2.65502 | 22337 ft | 408 kts | 109° |
| 2026-05-07 19:14 | 51.02887 | 2.69767 | 21934 ft | 404 kts | 109° |
| 2026-05-07 19:14 | 51.02021 | 2.73991 | 21540 ft | 400 kts | 109° |
| 2026-05-07 19:15 | 51.01163 | 2.78165 | 21140 ft | 396 kts | 109° |
| 2026-05-07 19:15 | 51.00306 | 2.82326 | 20676 ft | 394 kts | 109° |
| 2026-05-07 19:15 | 50.99453 | 2.86456 | 20165 ft | 394 kts | 109° |
| 2026-05-07 19:15 | 50.98597 | 2.90594 | 19686 ft | 393 kts | 109° |
| 2026-05-07 19:16 | 50.97757 | 2.94650 | 19207 ft | 392 kts | 109° |
| 2026-05-07 19:16 | 50.96905 | 2.98749 | 18721 ft | 391 kts | 109° |
| 2026-05-07 19:16 | 50.96054 | 3.02839 | 18247 ft | 390 kts | 109° |
| 2026-05-07 19:16 | 50.95206 | 3.06912 | 17698 ft | 388 kts | 109° |
| 2026-05-07 19:17 | 50.94357 | 3.10977 | 17175 ft | 387 kts | 109° |
| 2026-05-07 19:17 | 50.93511 | 3.15016 | 16653 ft | 385 kts | 109° |
| 2026-05-07 19:17 | 50.92667 | 3.19043 | 16140 ft | 383 kts | 109° |
| 2026-05-07 19:17 | 50.91826 | 3.23046 | 15652 ft | 382 kts | 109° |
| 2026-05-07 19:18 | 50.90987 | 3.27027 | 15232 ft | 377 kts | 109° |
| 2026-05-07 19:18 | 50.90170 | 3.30907 | 15081 ft | 365 kts | 109° |
| 2026-05-07 19:18 | 50.89389 | 3.34604 | 15067 ft | 349 kts | 109° |
| 2026-05-07 19:18 | 50.88635 | 3.38173 | 15056 ft | 334 kts | 110° |
| 2026-05-07 19:19 | 50.87911 | 3.41588 | 15060 ft | 321 kts | 110° |
| 2026-05-07 19:19 | 50.87193 | 3.44965 | 15076 ft | 325 kts | 110° |
| 2026-05-07 19:19 | 50.86467 | 3.48370 | 15086 ft | 333 kts | 110° |
| 2026-05-07 19:19 | 50.85695 | 3.51977 | 15117 ft | 359 kts | 110° |
| 2026-05-07 19:20 | 50.84864 | 3.55854 | 15113 ft | 385 kts | 110° |
| 2026-05-07 19:20 | 50.83976 | 3.59993 | 15091 ft | 406 kts | 110° |
| 2026-05-07 19:20 | 50.83061 | 3.64260 | 15085 ft | 411 kts | 110° |
| 2026-05-07 19:20 | 50.82143 | 3.68537 | 15081 ft | 411 kts | 110° |
| 2026-05-07 19:21 | 50.81223 | 3.72816 | 15074 ft | 411 kts | 110° |
| 2026-05-07 19:21 | 50.80301 | 3.77095 | 15074 ft | 411 kts | 110° |
| 2026-05-07 19:21 | 50.79378 | 3.81368 | 15076 ft | 410 kts | 110° |
| 2026-05-07 19:21 | 50.78453 | 3.85639 | 15076 ft | 410 kts | 110° |
| 2026-05-07 19:22 | 50.77525 | 3.89914 | 15082 ft | 410 kts | 110° |
| 2026-05-07 19:22 | 50.76614 | 3.94103 | 15055 ft | 404 kts | 110° |
| 2026-05-07 19:22 | 50.75720 | 3.98209 | 14639 ft | 388 kts | 110° |
| 2026-05-07 19:22 | 50.74845 | 4.02214 | 14185 ft | 384 kts | 110° |
| 2026-05-07 19:23 | 50.73981 | 4.06165 | 13679 ft | 368 kts | 110° |
| 2026-05-07 19:23 | 50.73171 | 4.09862 | 13130 ft | 345 kts | 110° |
| 2026-05-07 19:23 | 50.72394 | 4.13397 | 12630 ft | 338 kts | 110° |
| 2026-05-07 19:23 | 50.71873 | 4.15764 | 12297 ft | 338 kts | 110° |
| 2026-05-07 19:24 | 50.71103 | 4.19255 | 11819 ft | 337 kts | 110° |
| 2026-05-07 19:24 | 50.70331 | 4.22751 | 11345 ft | 336 kts | 110° |
| 2026-05-07 19:24 | 50.69561 | 4.26234 | 10875 ft | 335 kts | 110° |
| 2026-05-07 19:24 | 50.68803 | 4.29653 | 10415 ft | 333 kts | 110° |
| 2026-05-07 19:25 | 50.68041 | 4.33090 | 10138 ft | 331 kts | 110° |
| 2026-05-07 19:25 | 50.67285 | 4.36490 | 10082 ft | 324 kts | 110° |
| 2026-05-07 19:25 | 50.66552 | 4.39788 | 10061 ft | 312 kts | 110° |
| 2026-05-07 19:25 | 50.65837 | 4.42999 | 10092 ft | 311 kts | 110° |
| 2026-05-07 19:26 | 50.65115 | 4.46233 | 9879 ft | 315 kts | 110° |
| 2026-05-07 19:26 | 50.64381 | 4.49513 | 9434 ft | 318 kts | 110° |
| 2026-05-07 19:26 | 50.63646 | 4.52797 | 8990 ft | 317 kts | 110° |
| 2026-05-07 19:26 | 50.62913 | 4.56067 | 8549 ft | 313 kts | 110° |
| 2026-05-07 19:27 | 50.62213 | 4.59187 | 8184 ft | 294 kts | 110° |
| 2026-05-07 19:27 | 50.61522 | 4.62257 | 8094 ft | 298 kts | 110° |
| 2026-05-07 19:27 | 50.60833 | 4.65315 | 8074 ft | 295 kts | 110° |
| 2026-05-07 19:27 | 50.60147 | 4.68357 | 8069 ft | 293 kts | 110° |
| 2026-05-07 19:28 | 50.59475 | 4.71326 | 8048 ft | 288 kts | 110° |
| 2026-05-07 19:28 | 50.58808 | 4.74274 | 7726 ft | 284 kts | 110° |
| 2026-05-07 19:28 | 50.58146 | 4.77194 | 7237 ft | 281 kts | 110° |
| 2026-05-07 19:28 | 50.57494 | 4.80067 | 6802 ft | 277 kts | 110° |
| 2026-05-07 19:29 | 50.56841 | 4.82942 | 6774 ft | 278 kts | 110° |
| 2026-05-07 19:29 | 50.56195 | 4.85785 | 6319 ft | 273 kts | 110° |
| 2026-05-07 19:29 | 50.55561 | 4.88570 | 5560 ft | 268 kts | 110° |
| 2026-05-07 19:29 | 50.54945 | 4.91269 | 4918 ft | 254 kts | 109° |
| 2026-05-07 19:30 | 50.54369 | 4.93793 | 4582 ft | 232 kts | 109° |
| 2026-05-07 19:30 | 50.53820 | 4.96195 | 4599 ft | 235 kts | 109° |
| 2026-05-07 19:30 | 50.53273 | 4.98587 | 4344 ft | 236 kts | 109° |
| 2026-05-07 19:30 | 50.52717 | 5.01019 | 3730 ft | 238 kts | 109° |
| 2026-05-07 19:31 | 50.52165 | 5.03427 | 3263 ft | 228 kts | 109° |
| 2026-05-07 19:31 | 50.51614 | 5.05829 | 3133 ft | 243 kts | 109° |
| 2026-05-07 19:31 | 50.51029 | 5.08380 | 3078 ft | 249 kts | 109° |
| 2026-05-07 19:31 | 50.50444 | 5.10922 | 3015 ft | 246 kts | 109° |
| 2026-05-07 19:32 | 50.49866 | 5.13428 | 3000 ft | 242 kts | 109° |
| 2026-05-07 19:32 | 50.49305 | 5.15862 | 2995 ft | 236 kts | 109° |
| 2026-05-07 19:32 | 50.48815 | 5.18269 | 2982 ft | 227 kts | 97° |
| 2026-05-07 19:32 | 50.49020 | 5.20620 | 3000 ft | 209 kts | 66° |
| 2026-05-07 19:33 | 50.49777 | 5.22398 | 2977 ft | 185 kts | 48° |
| 2026-05-07 19:33 | 50.50640 | 5.23784 | 3003 ft | 173 kts | 46° |
| 2026-05-07 19:33 | 50.51488 | 5.25108 | 3007 ft | 170 kts | 46° |
| 2026-05-07 19:33 | 50.52331 | 5.26425 | 3014 ft | 172 kts | 46° |
| 2026-05-07 19:34 | 50.53182 | 5.27758 | 3009 ft | 172 kts | 46° |
| 2026-05-07 19:34 | 50.54030 | 5.29088 | 3004 ft | 173 kts | 46° |
| 2026-05-07 19:34 | 50.54881 | 5.30421 | 3007 ft | 172 kts | 46° |
| 2026-05-07 19:34 | 50.55727 | 5.31751 | 3001 ft | 172 kts | 46° |
| 2026-05-07 19:35 | 50.56564 | 5.33066 | 2997 ft | 172 kts | 46° |
| 2026-05-07 19:35 | 50.57416 | 5.34405 | 2938 ft | 175 kts | 45° |
| 2026-05-07 19:35 | 50.58309 | 5.35780 | 2587 ft | 179 kts | 45° |
| 2026-05-07 19:35 | 50.59183 | 5.37128 | 2123 ft | 173 kts | 45° |
| 2026-05-07 19:36 | 50.60004 | 5.38455 | 1681 ft | 166 kts | 47° |
| 2026-05-07 19:36 | 50.60801 | 5.39784 | 1336 ft | 167 kts | 45° |
| 2026-05-07 19:36 | 50.61653 | 5.41005 | 1110 ft | 159 kts | 44° |
| 2026-05-07 19:36 | 50.62376 | 5.42242 | 822 ft | 147 kts | 46° |
| 2026-05-07 19:37 | 50.63052 | 5.43312 | 666 ft | 133 kts | 44° |
| 2026-05-07 19:37 | 50.63643 | 5.44248 | 638 ft | 102 kts | 46° |
| 2026-05-07 19:37 | 50.64015 | 5.44850 | 623 ft | 55 kts | 46° |
| 2026-05-07 19:37 | 50.64273 | 5.45264 | 602 ft | 54 kts | 45° |
| 2026-05-07 19:38 | 50.64389 | 5.45603 | 613 ft | 18 kts | 88° |
| 2026-05-07 19:38 | 50.64387 | 5.45655 | 617 ft | 0 kts | 100° |
| 2026-05-07 19:39 | 50.64371 | 5.45688 | 633 ft | 11 kts | 142° |
| 2026-05-07 19:39 | 50.64300 | 5.45656 | 631 ft | 12 kts | 219° |
| 2026-05-07 19:39 | 50.64240 | 5.45570 | 631 ft | 12 kts | 225° |
| 2026-05-07 19:39 | 50.64183 | 5.45476 | 633 ft | 12 kts | 228° |
| 2026-05-07 19:40 | 50.64127 | 5.45383 | 633 ft | 12 kts | 224° |
| 2026-05-07 19:40 | 50.64068 | 5.45293 | 626 ft | 12 kts | 224° |
| 2026-05-07 19:40 | 50.64010 | 5.45201 | 633 ft | 12 kts | 225° |
| 2026-05-07 19:40 | 50.63952 | 5.45110 | 633 ft | 12 kts | 225° |
| 2026-05-07 19:41 | 50.63894 | 5.45018 | 631 ft | 12 kts | 225° |
| 2026-05-07 19:41 | 50.63837 | 5.44926 | 630 ft | 12 kts | 226° |
| 2026-05-07 19:41 | 50.63779 | 5.44833 | 627 ft | 13 kts | 225° |
| 2026-05-07 19:41 | 50.63708 | 5.44722 | 632 ft | 15 kts | 225° |
| 2026-05-07 19:42 | 50.63637 | 5.44609 | 631 ft | 15 kts | 225° |
| 2026-05-07 19:42 | 50.63566 | 5.44495 | 634 ft | 15 kts | 225° |
| 2026-05-07 19:42 | 50.63494 | 5.44412 | 633 ft | 11 kts | 180° |
| 2026-05-07 19:42 | 50.63438 | 5.44466 | 634 ft | 9 kts | 138° |
| 2026-05-07 19:43 | 50.63402 | 5.44521 | 637 ft | 5 kts | 136° |
| 2026-05-07 19:43 | 50.63380 | 5.44555 | 637 ft | 3 kts | 135° |
| 2026-05-07 19:43 | 50.63379 | 5.44557 | 637 ft | 0 kts | 135° |